sensor_id;sensor_type;location;lat;lon;timestamp;P1;durP1;ratioP1;P2;durP2;ratioP2
13611;SDS011;6877;51.436;6.774;2022-07-29T00:01:57;5.25;;;2.05;;
13611;SDS011;6877;51.436;6.774;2022-07-29T00:04:28;3.95;;;2.45;;
13611;SDS011;6877;51.436;6.774;2022-07-29T00:07:00;5.07;;;2.28;;
13611;SDS011;6877;51.436;6.774;2022-07-29T00:09:26;3.13;;;2.10;;
13611;SDS011;6877;51.436;6.774;2022-07-29T00:11:59;6.18;;;2.20;;
13611;SDS011;6877;51.436;6.774;2022-07-29T00:14:31;9.52;;;2.30;;
13611;SDS011;6877;51.436;6.774;2022-07-29T00:17:03;4.63;;;1.75;;
13611;SDS011;6877;51.436;6.774;2022-07-29T00:19:29;4.88;;;1.90;;
13611;SDS011;6877;51.436;6.774;2022-07-29T00:22:01;4.25;;;2.30;;
13611;SDS011;6877;51.436;6.774;2022-07-29T00:24:32;5.50;;;2.15;;
13611;SDS011;6877;51.436;6.774;2022-07-29T00:27:03;3.72;;;1.95;;
13611;SDS011;6877;51.436;6.774;2022-07-29T00:29:35;6.10;;;2.33;;
13611;SDS011;6877;51.436;6.774;2022-07-29T00:32:06;3.38;;;2.40;;
13611;SDS011;6877;51.436;6.774;2022-07-29T00:34:33;5.88;;;1.80;;
13611;SDS011;6877;51.436;6.774;2022-07-29T00:37:23;2.33;;;2.03;;
13611;SDS011;6877;51.436;6.774;2022-07-29T00:39:54;4.72;;;2.30;;
13611;SDS011;6877;51.436;6.774;2022-07-29T00:42:26;5.63;;;1.95;;
13611;SDS011;6877;51.436;6.774;2022-07-29T00:44:53;4.28;;;2.22;;
13611;SDS011;6877;51.436;6.774;2022-07-29T00:47:25;5.95;;;2.50;;
13611;SDS011;6877;51.436;6.774;2022-07-29T00:49:56;8.30;;;2.83;;
13611;SDS011;6877;51.436;6.774;2022-07-29T00:52:28;10.25;;;2.15;;
13611;SDS011;6877;51.436;6.774;2022-07-29T00:54:59;3.20;;;1.98;;
13611;SDS011;6877;51.436;6.774;2022-07-29T00:57:31;2.90;;;2.10;;
13611;SDS011;6877;51.436;6.774;2022-07-29T00:59:58;5.85;;;2.30;;
13611;SDS011;6877;51.436;6.774;2022-07-29T01:02:30;4.18;;;2.45;;
13611;SDS011;6877;51.436;6.774;2022-07-29T01:05:02;4.75;;;2.78;;
13611;SDS011;6877;51.436;6.774;2022-07-29T01:07:34;4.82;;;2.08;;
13611;SDS011;6877;51.436;6.774;2022-07-29T01:10:09;2.53;;;1.80;;
13611;SDS011;6877;51.436;6.774;2022-07-29T01:12:41;2.80;;;2.15;;
13611;SDS011;6877;51.436;6.774;2022-07-29T01:15:15;6.05;;;2.15;;
13611;SDS011;6877;51.436;6.774;2022-07-29T01:17:54;4.05;;;2.10;;
13611;SDS011;6877;51.436;6.774;2022-07-29T01:20:31;4.60;;;2.28;;
13611;SDS011;6877;51.436;6.774;2022-07-29T01:29:16;3.80;;;1.92;;
13611;SDS011;6877;51.436;6.774;2022-07-29T01:34:54;3.55;;;2.67;;
13611;SDS011;6877;51.436;6.774;2022-07-29T01:43:30;5.30;;;2.22;;
13611;SDS011;6877;51.436;6.774;2022-07-29T01:46:04;3.13;;;1.92;;
13611;SDS011;6877;51.436;6.774;2022-07-29T01:48:53;3.75;;;2.00;;
13611;SDS011;6877;51.436;6.774;2022-07-29T01:51:31;5.13;;;2.45;;
13611;SDS011;6877;51.436;6.774;2022-07-29T01:56:53;6.72;;;2.42;;
13611;SDS011;6877;51.436;6.774;2022-07-29T01:59:27;3.63;;;2.10;;
13611;SDS011;6877;51.436;6.774;2022-07-29T02:02:01;2.38;;;1.75;;
13611;SDS011;6877;51.436;6.774;2022-07-29T02:04:28;3.33;;;2.10;;
13611;SDS011;6877;51.436;6.774;2022-07-29T02:07:01;5.40;;;2.30;;
13611;SDS011;6877;51.436;6.774;2022-07-29T02:09:36;6.03;;;2.33;;
13611;SDS011;6877;51.436;6.774;2022-07-29T02:12:05;3.83;;;2.33;;
13611;SDS011;6877;51.436;6.774;2022-07-29T02:14:44;3.03;;;2.38;;
13611;SDS011;6877;51.436;6.774;2022-07-29T02:17:26;4.85;;;2.33;;
13611;SDS011;6877;51.436;6.774;2022-07-29T02:20:03;5.10;;;2.25;;
13611;SDS011;6877;51.436;6.774;2022-07-29T02:22:36;3.00;;;2.00;;
13611;SDS011;6877;51.436;6.774;2022-07-29T02:25:10;7.03;;;2.17;;
13611;SDS011;6877;51.436;6.774;2022-07-29T02:27:43;4.57;;;2.40;;
13611;SDS011;6877;51.436;6.774;2022-07-29T02:30:11;6.50;;;2.05;;
13611;SDS011;6877;51.436;6.774;2022-07-29T02:32:43;3.50;;;1.70;;
13611;SDS011;6877;51.436;6.774;2022-07-29T02:35:17;4.18;;;2.55;;
13611;SDS011;6877;51.436;6.774;2022-07-29T02:37:51;8.93;;;3.38;;
13611;SDS011;6877;51.436;6.774;2022-07-29T02:40:43;8.85;;;2.50;;
13611;SDS011;6877;51.436;6.774;2022-07-29T02:43:15;6.95;;;2.55;;
13611;SDS011;6877;51.436;6.774;2022-07-29T02:45:48;6.72;;;2.25;;
13611;SDS011;6877;51.436;6.774;2022-07-29T02:48:27;6.55;;;2.72;;
13611;SDS011;6877;51.436;6.774;2022-07-29T02:51:05;6.43;;;2.40;;
13611;SDS011;6877;51.436;6.774;2022-07-29T02:53:39;5.28;;;2.75;;
13611;SDS011;6877;51.436;6.774;2022-07-29T02:56:14;8.10;;;2.30;;
13611;SDS011;6877;51.436;6.774;2022-07-29T02:58:54;3.58;;;2.17;;
13611;SDS011;6877;51.436;6.774;2022-07-29T03:01:29;2.55;;;1.98;;
13611;SDS011;6877;51.436;6.774;2022-07-29T03:04:03;7.13;;;2.70;;
13611;SDS011;6877;51.436;6.774;2022-07-29T03:06:36;4.45;;;2.25;;
13611;SDS011;6877;51.436;6.774;2022-07-29T03:09:10;10.55;;;2.92;;
13611;SDS011;6877;51.436;6.774;2022-07-29T03:11:43;4.18;;;2.45;;
13611;SDS011;6877;51.436;6.774;2022-07-29T03:14:16;6.10;;;3.78;;
13611;SDS011;6877;51.436;6.774;2022-07-29T03:16:49;7.75;;;3.95;;
13611;SDS011;6877;51.436;6.774;2022-07-29T03:19:22;7.45;;;4.03;;
13611;SDS011;6877;51.436;6.774;2022-07-29T03:21:55;6.18;;;2.67;;
13611;SDS011;6877;51.436;6.774;2022-07-29T03:24:31;5.65;;;2.40;;
13611;SDS011;6877;51.436;6.774;2022-07-29T03:27:04;6.55;;;2.53;;
13611;SDS011;6877;51.436;6.774;2022-07-29T03:29:36;8.00;;;2.83;;
13611;SDS011;6877;51.436;6.774;2022-07-29T03:32:03;10.23;;;2.50;;
13611;SDS011;6877;51.436;6.774;2022-07-29T03:34:36;6.75;;;2.45;;
13611;SDS011;6877;51.436;6.774;2022-07-29T03:37:08;11.13;;;3.05;;
13611;SDS011;6877;51.436;6.774;2022-07-29T03:39:40;4.18;;;2.60;;
13611;SDS011;6877;51.436;6.774;2022-07-29T03:42:10;3.15;;;2.63;;
13611;SDS011;6877;51.436;6.774;2022-07-29T03:44:45;3.65;;;2.15;;
13611;SDS011;6877;51.436;6.774;2022-07-29T03:47:22;6.05;;;2.17;;
13611;SDS011;6877;51.436;6.774;2022-07-29T03:49:59;11.18;;;2.95;;
13611;SDS011;6877;51.436;6.774;2022-07-29T03:52:28;15.27;;;2.90;;
13611;SDS011;6877;51.436;6.774;2022-07-29T03:54:59;11.45;;;2.50;;
13611;SDS011;6877;51.436;6.774;2022-07-29T03:57:31;3.95;;;2.72;;
13611;SDS011;6877;51.436;6.774;2022-07-29T04:00:04;3.42;;;1.92;;
13611;SDS011;6877;51.436;6.774;2022-07-29T04:02:36;7.38;;;2.97;;
13611;SDS011;6877;51.436;6.774;2022-07-29T04:05:05;6.95;;;2.88;;
13611;SDS011;6877;51.436;6.774;2022-07-29T04:07:44;6.25;;;2.35;;
13611;SDS011;6877;51.436;6.774;2022-07-29T04:10:16;7.65;;;3.28;;
13611;SDS011;6877;51.436;6.774;2022-07-29T04:12:48;13.65;;;3.83;;
13611;SDS011;6877;51.436;6.774;2022-07-29T04:15:20;3.95;;;3.40;;
13611;SDS011;6877;51.436;6.774;2022-07-29T04:17:52;13.43;;;3.55;;
13611;SDS011;6877;51.436;6.774;2022-07-29T04:20:23;13.77;;;3.95;;
13611;SDS011;6877;51.436;6.774;2022-07-29T04:22:54;8.20;;;4.07;;
13611;SDS011;6877;51.436;6.774;2022-07-29T04:25:26;5.55;;;3.28;;
13611;SDS011;6877;51.436;6.774;2022-07-29T04:27:52;14.43;;;5.07;;
13611;SDS011;6877;51.436;6.774;2022-07-29T04:30:33;12.60;;;5.55;;
13611;SDS011;6877;51.436;6.774;2022-07-29T04:33:06;7.03;;;4.50;;
13611;SDS011;6877;51.436;6.774;2022-07-29T04:35:38;10.50;;;4.97;;
13611;SDS011;6877;51.436;6.774;2022-07-29T04:38:10;17.58;;;6.03;;
13611;SDS011;6877;51.436;6.774;2022-07-29T04:40:36;14.52;;;5.93;;
13611;SDS011;6877;51.436;6.774;2022-07-29T04:43:07;12.65;;;5.38;;
13611;SDS011;6877;51.436;6.774;2022-07-29T04:45:39;10.18;;;4.85;;
13611;SDS011;6877;51.436;6.774;2022-07-29T04:48:11;8.77;;;4.10;;
13611;SDS011;6877;51.436;6.774;2022-07-29T04:50:42;7.72;;;3.67;;
13611;SDS011;6877;51.436;6.774;2022-07-29T04:53:15;8.68;;;4.07;;
13611;SDS011;6877;51.436;6.774;2022-07-29T04:55:41;9.55;;;4.03;;
13611;SDS011;6877;51.436;6.774;2022-07-29T04:58:13;7.22;;;3.13;;
13611;SDS011;6877;51.436;6.774;2022-07-29T05:00:44;6.13;;;3.50;;
13611;SDS011;6877;51.436;6.774;2022-07-29T05:03:16;6.47;;;3.10;;
13611;SDS011;6877;51.436;6.774;2022-07-29T05:05:47;5.40;;;3.78;;
13611;SDS011;6877;51.436;6.774;2022-07-29T05:08:19;7.35;;;3.70;;
13611;SDS011;6877;51.436;6.774;2022-07-29T05:10:51;5.93;;;4.68;;
13611;SDS011;6877;51.436;6.774;2022-07-29T05:13:22;7.47;;;3.70;;
13611;SDS011;6877;51.436;6.774;2022-07-29T05:15:54;9.18;;;4.60;;
13611;SDS011;6877;51.436;6.774;2022-07-29T05:18:25;11.13;;;4.50;;
13611;SDS011;6877;51.436;6.774;2022-07-29T05:20:57;12.45;;;4.45;;
13611;SDS011;6877;51.436;6.774;2022-07-29T05:23:23;9.18;;;3.55;;
13611;SDS011;6877;51.436;6.774;2022-07-29T05:25:55;7.72;;;4.00;;
13611;SDS011;6877;51.436;6.774;2022-07-29T05:28:26;8.35;;;3.58;;
13611;SDS011;6877;51.436;6.774;2022-07-29T05:30:58;7.53;;;3.00;;
13611;SDS011;6877;51.436;6.774;2022-07-29T05:33:29;7.43;;;3.67;;
13611;SDS011;6877;51.436;6.774;2022-07-29T05:36:01;12.32;;;4.45;;
13611;SDS011;6877;51.436;6.774;2022-07-29T05:38:28;8.73;;;3.85;;
13611;SDS011;6877;51.436;6.774;2022-07-29T05:41:00;5.07;;;4.25;;
13611;SDS011;6877;51.436;6.774;2022-07-29T05:43:31;4.82;;;3.85;;
13611;SDS011;6877;51.436;6.774;2022-07-29T05:46:03;11.00;;;4.53;;
13611;SDS011;6877;51.436;6.774;2022-07-29T05:48:29;7.90;;;3.42;;
13611;SDS011;6877;51.436;6.774;2022-07-29T05:51:01;6.57;;;3.67;;
13611;SDS011;6877;51.436;6.774;2022-07-29T05:53:32;8.80;;;3.72;;
13611;SDS011;6877;51.436;6.774;2022-07-29T05:56:04;5.15;;;3.90;;
13611;SDS011;6877;51.436;6.774;2022-07-29T05:58:36;5.97;;;3.60;;
13611;SDS011;6877;51.436;6.774;2022-07-29T06:01:08;5.53;;;3.95;;
13611;SDS011;6877;51.436;6.774;2022-07-29T06:03:39;8.98;;;4.20;;
13611;SDS011;6877;51.436;6.774;2022-07-29T06:06:12;7.50;;;4.15;;
13611;SDS011;6877;51.436;6.774;2022-07-29T06:08:43;7.43;;;4.80;;
13611;SDS011;6877;51.436;6.774;2022-07-29T06:11:15;9.38;;;4.28;;
13611;SDS011;6877;51.436;6.774;2022-07-29T06:13:46;12.60;;;4.53;;
13611;SDS011;6877;51.436;6.774;2022-07-29T06:16:18;6.57;;;3.70;;
13611;SDS011;6877;51.436;6.774;2022-07-29T06:18:50;8.82;;;3.85;;
13611;SDS011;6877;51.436;6.774;2022-07-29T06:21:21;12.60;;;4.47;;
13611;SDS011;6877;51.436;6.774;2022-07-29T06:23:53;7.95;;;3.90;;
13611;SDS011;6877;51.436;6.774;2022-07-29T06:26:19;9.60;;;5.15;;
13611;SDS011;6877;51.436;6.774;2022-07-29T06:28:50;8.88;;;3.30;;
13611;SDS011;6877;51.436;6.774;2022-07-29T06:31:22;7.95;;;4.15;;
13611;SDS011;6877;51.436;6.774;2022-07-29T06:33:53;6.60;;;3.38;;
13611;SDS011;6877;51.436;6.774;2022-07-29T06:36:25;11.23;;;4.00;;
13611;SDS011;6877;51.436;6.774;2022-07-29T06:38:56;12.30;;;4.72;;
13611;SDS011;6877;51.436;6.774;2022-07-29T06:41:23;14.88;;;4.10;;
13611;SDS011;6877;51.436;6.774;2022-07-29T06:43:49;11.45;;;4.03;;
13611;SDS011;6877;51.436;6.774;2022-07-29T06:46:22;12.70;;;3.70;;
13611;SDS011;6877;51.436;6.774;2022-07-29T06:48:53;5.93;;;3.90;;
13611;SDS011;6877;51.436;6.774;2022-07-29T06:51:25;9.57;;;4.47;;
13611;SDS011;6877;51.436;6.774;2022-07-29T06:53:58;5.63;;;3.60;;
13611;SDS011;6877;51.436;6.774;2022-07-29T06:56:30;7.13;;;4.88;;
13611;SDS011;6877;51.436;6.774;2022-07-29T06:59:03;15.85;;;4.10;;
13611;SDS011;6877;51.436;6.774;2022-07-29T07:01:36;12.63;;;4.22;;
13611;SDS011;6877;51.436;6.774;2022-07-29T07:04:09;12.82;;;4.45;;
13611;SDS011;6877;51.436;6.774;2022-07-29T07:06:41;9.32;;;4.85;;
13611;SDS011;6877;51.436;6.774;2022-07-29T07:09:07;12.50;;;5.72;;
13611;SDS011;6877;51.436;6.774;2022-07-29T07:11:34;6.22;;;4.35;;
13611;SDS011;6877;51.436;6.774;2022-07-29T07:14:05;5.68;;;4.32;;
13611;SDS011;6877;51.436;6.774;2022-07-29T07:16:37;13.95;;;4.55;;
13611;SDS011;6877;51.436;6.774;2022-07-29T07:19:08;8.07;;;4.05;;
13611;SDS011;6877;51.436;6.774;2022-07-29T07:21:40;10.07;;;4.55;;
13611;SDS011;6877;51.436;6.774;2022-07-29T07:24:06;10.18;;;5.68;;
13611;SDS011;6877;51.436;6.774;2022-07-29T07:26:38;6.43;;;4.25;;
13611;SDS011;6877;51.436;6.774;2022-07-29T07:29:11;7.10;;;4.63;;
13611;SDS011;6877;51.436;6.774;2022-07-29T07:31:42;6.55;;;4.28;;
13611;SDS011;6877;51.436;6.774;2022-07-29T07:34:14;9.07;;;4.57;;
13611;SDS011;6877;51.436;6.774;2022-07-29T07:36:45;6.03;;;4.00;;
13611;SDS011;6877;51.436;6.774;2022-07-29T07:39:17;9.18;;;4.75;;
13611;SDS011;6877;51.436;6.774;2022-07-29T07:41:48;12.45;;;4.72;;
13611;SDS011;6877;51.436;6.774;2022-07-29T07:44:15;9.02;;;4.45;;
13611;SDS011;6877;51.436;6.774;2022-07-29T07:46:46;11.27;;;4.75;;
13611;SDS011;6877;51.436;6.774;2022-07-29T07:49:18;9.38;;;5.40;;
13611;SDS011;6877;51.436;6.774;2022-07-29T07:51:49;10.48;;;4.38;;
13611;SDS011;6877;51.436;6.774;2022-07-29T07:54:21;6.20;;;4.50;;
13611;SDS011;6877;51.436;6.774;2022-07-29T07:56:52;5.20;;;3.42;;
13611;SDS011;6877;51.436;6.774;2022-07-29T07:59:24;8.88;;;4.68;;
13611;SDS011;6877;51.436;6.774;2022-07-29T08:01:55;6.32;;;3.90;;
13611;SDS011;6877;51.436;6.774;2022-07-29T08:04:27;9.18;;;3.80;;
13611;SDS011;6877;51.436;6.774;2022-07-29T08:06:58;13.43;;;4.85;;
13611;SDS011;6877;51.436;6.774;2022-07-29T08:09:31;11.95;;;5.97;;
13611;SDS011;6877;51.436;6.774;2022-07-29T08:11:58;8.00;;;5.38;;
13611;SDS011;6877;51.436;6.774;2022-07-29T08:14:30;9.77;;;5.90;;
13611;SDS011;6877;51.436;6.774;2022-07-29T08:17:02;18.95;;;5.80;;
13611;SDS011;6877;51.436;6.774;2022-07-29T08:19:29;14.88;;;6.40;;
13611;SDS011;6877;51.436;6.774;2022-07-29T08:21:55;10.32;;;5.85;;
13611;SDS011;6877;51.436;6.774;2022-07-29T08:24:27;16.85;;;6.72;;
13611;SDS011;6877;51.436;6.774;2022-07-29T08:27:13;14.82;;;7.05;;
13611;SDS011;6877;51.436;6.774;2022-07-29T08:29:45;17.33;;;7.80;;
13611;SDS011;6877;51.436;6.774;2022-07-29T08:32:16;16.08;;;8.25;;
13611;SDS011;6877;51.436;6.774;2022-07-29T08:34:48;18.88;;;8.20;;
13611;SDS011;6877;51.436;6.774;2022-07-29T08:37:19;22.27;;;9.20;;
13611;SDS011;6877;51.436;6.774;2022-07-29T08:39:51;20.80;;;10.90;;
13611;SDS011;6877;51.436;6.774;2022-07-29T08:42:17;23.52;;;7.80;;
13611;SDS011;6877;51.436;6.774;2022-07-29T08:44:49;18.27;;;7.85;;
13611;SDS011;6877;51.436;6.774;2022-07-29T08:47:21;13.50;;;7.43;;
13611;SDS011;6877;51.436;6.774;2022-07-29T08:49:53;10.85;;;6.50;;
13611;SDS011;6877;51.436;6.774;2022-07-29T08:52:19;16.85;;;7.88;;
13611;SDS011;6877;51.436;6.774;2022-07-29T08:54:53;11.73;;;7.78;;
13611;SDS011;6877;51.436;6.774;2022-07-29T08:57:24;12.00;;;7.40;;
13611;SDS011;6877;51.436;6.774;2022-07-29T08:59:57;20.77;;;7.72;;
13611;SDS011;6877;51.436;6.774;2022-07-29T09:02:33;14.82;;;6.85;;
13611;SDS011;6877;51.436;6.774;2022-07-29T09:05:09;13.63;;;7.22;;
13611;SDS011;6877;51.436;6.774;2022-07-29T09:07:41;13.70;;;6.80;;
13611;SDS011;6877;51.436;6.774;2022-07-29T09:10:14;11.80;;;6.85;;
13611;SDS011;6877;51.436;6.774;2022-07-29T09:12:45;12.15;;;6.28;;
13611;SDS011;6877;51.436;6.774;2022-07-29T09:15:17;10.35;;;5.95;;
13611;SDS011;6877;51.436;6.774;2022-07-29T09:17:49;10.55;;;6.97;;
13611;SDS011;6877;51.436;6.774;2022-07-29T09:20:21;10.98;;;7.40;;
13611;SDS011;6877;51.436;6.774;2022-07-29T09:22:54;9.13;;;6.07;;
13611;SDS011;6877;51.436;6.774;2022-07-29T09:25:32;11.40;;;6.68;;
13611;SDS011;6877;51.436;6.774;2022-07-29T09:30:49;11.00;;;6.28;;
13611;SDS011;6877;51.436;6.774;2022-07-29T09:33:30;9.60;;;5.68;;
13611;SDS011;6877;51.436;6.774;2022-07-29T09:36:08;21.00;;;6.18;;
13611;SDS011;6877;51.436;6.774;2022-07-29T09:38:40;23.92;;;7.80;;
13611;SDS011;6877;51.436;6.774;2022-07-29T09:41:12;13.90;;;6.18;;
13611;SDS011;6877;51.436;6.774;2022-07-29T09:43:40;16.95;;;7.70;;
13611;SDS011;6877;51.436;6.774;2022-07-29T09:46:11;11.55;;;6.93;;
13611;SDS011;6877;51.436;6.774;2022-07-29T09:48:44;12.93;;;7.30;;
13611;SDS011;6877;51.436;6.774;2022-07-29T09:51:16;11.93;;;6.28;;
13611;SDS011;6877;51.436;6.774;2022-07-29T09:53:52;9.85;;;6.68;;
13611;SDS011;6877;51.436;6.774;2022-07-29T09:56:18;12.73;;;6.78;;
13611;SDS011;6877;51.436;6.774;2022-07-29T09:59:00;11.88;;;6.60;;
13611;SDS011;6877;51.436;6.774;2022-07-29T10:01:37;11.35;;;7.47;;
13611;SDS011;6877;51.436;6.774;2022-07-29T10:04:08;15.68;;;8.43;;
13611;SDS011;6877;51.436;6.774;2022-07-29T10:06:56;12.98;;;6.97;;
13611;SDS011;6877;51.436;6.774;2022-07-29T10:09:32;11.25;;;7.30;;
13611;SDS011;6877;51.436;6.774;2022-07-29T10:14:40;13.48;;;7.22;;
13611;SDS011;6877;51.436;6.774;2022-07-29T10:17:12;15.15;;;7.72;;
13611;SDS011;6877;51.436;6.774;2022-07-29T10:19:44;14.23;;;7.70;;
13611;SDS011;6877;51.436;6.774;2022-07-29T10:22:16;19.48;;;7.13;;
13611;SDS011;6877;51.436;6.774;2022-07-29T10:24:47;13.63;;;5.97;;
13611;SDS011;6877;51.436;6.774;2022-07-29T10:27:19;14.15;;;7.20;;
13611;SDS011;6877;51.436;6.774;2022-07-29T10:29:51;8.50;;;5.32;;
13611;SDS011;6877;51.436;6.774;2022-07-29T10:35:12;9.88;;;4.32;;
13611;SDS011;6877;51.436;6.774;2022-07-29T10:41:16;10.35;;;4.55;;
13611;SDS011;6877;51.436;6.774;2022-07-29T10:46:39;7.55;;;3.20;;
13611;SDS011;6877;51.436;6.774;2022-07-29T10:49:15;16.88;;;4.78;;
13611;SDS011;6877;51.436;6.774;2022-07-29T11:07:40;4.35;;;3.05;;
13611;SDS011;6877;51.436;6.774;2022-07-29T11:10:51;9.32;;;2.88;;
13611;SDS011;6877;51.436;6.774;2022-07-29T11:16:28;9.13;;;3.45;;
13611;SDS011;6877;51.436;6.774;2022-07-29T11:19:33;7.47;;;3.03;;
13611;SDS011;6877;51.436;6.774;2022-07-29T11:22:06;5.97;;;2.40;;
13611;SDS011;6877;51.436;6.774;2022-07-29T11:24:39;11.93;;;2.65;;
13611;SDS011;6877;51.436;6.774;2022-07-29T11:32:38;5.55;;;3.17;;
13611;SDS011;6877;51.436;6.774;2022-07-29T11:37:47;7.65;;;3.67;;
13611;SDS011;6877;51.436;6.774;2022-07-29T11:43:52;10.20;;;4.50;;
13611;SDS011;6877;51.436;6.774;2022-07-29T11:46:47;9.80;;;4.53;;
13611;SDS011;6877;51.436;6.774;2022-07-29T11:51:52;11.60;;;6.35;;
13611;SDS011;6877;51.436;6.774;2022-07-29T11:54:26;13.20;;;5.70;;
13611;SDS011;6877;51.436;6.774;2022-07-29T11:57:03;8.52;;;5.32;;
13611;SDS011;6877;51.436;6.774;2022-07-29T11:59:41;11.18;;;5.70;;
13611;SDS011;6877;51.436;6.774;2022-07-29T12:02:15;9.75;;;5.13;;
13611;SDS011;6877;51.436;6.774;2022-07-29T12:07:30;7.35;;;4.40;;
13611;SDS011;6877;51.436;6.774;2022-07-29T12:10:03;11.93;;;5.00;;
13611;SDS011;6877;51.436;6.774;2022-07-29T12:12:37;11.85;;;5.65;;
13611;SDS011;6877;51.436;6.774;2022-07-29T12:15:22;7.20;;;4.63;;
13611;SDS011;6877;51.436;6.774;2022-07-29T12:17:55;7.43;;;4.70;;
13611;SDS011;6877;51.436;6.774;2022-07-29T12:20:29;9.30;;;4.50;;
13611;SDS011;6877;51.436;6.774;2022-07-29T12:23:04;7.80;;;4.47;;
13611;SDS011;6877;51.436;6.774;2022-07-29T12:25:33;10.75;;;4.65;;
13611;SDS011;6877;51.436;6.774;2022-07-29T12:28:08;13.48;;;4.82;;
13611;SDS011;6877;51.436;6.774;2022-07-29T12:30:42;13.85;;;3.95;;
13611;SDS011;6877;51.436;6.774;2022-07-29T12:35:49;10.45;;;4.38;;
13611;SDS011;6877;51.436;6.774;2022-07-29T12:38:24;7.78;;;3.78;;
13611;SDS011;6877;51.436;6.774;2022-07-29T12:40:56;7.35;;;4.43;;
13611;SDS011;6877;51.436;6.774;2022-07-29T12:43:23;9.77;;;4.05;;
13611;SDS011;6877;51.436;6.774;2022-07-29T12:45:55;5.82;;;3.50;;
13611;SDS011;6877;51.436;6.774;2022-07-29T12:51:06;10.75;;;5.60;;
13611;SDS011;6877;51.436;6.774;2022-07-29T12:53:40;16.67;;;5.40;;
13611;SDS011;6877;51.436;6.774;2022-07-29T12:56:15;12.45;;;5.07;;
13611;SDS011;6877;51.436;6.774;2022-07-29T12:58:47;10.68;;;4.97;;
13611;SDS011;6877;51.436;6.774;2022-07-29T13:01:19;14.75;;;4.35;;
13611;SDS011;6877;51.436;6.774;2022-07-29T13:03:52;8.65;;;4.38;;
13611;SDS011;6877;51.436;6.774;2022-07-29T13:14:14;6.88;;;3.70;;
13611;SDS011;6877;51.436;6.774;2022-07-29T13:17:19;12.43;;;5.47;;
13611;SDS011;6877;51.436;6.774;2022-07-29T13:20:04;8.68;;;5.18;;
13611;SDS011;6877;51.436;6.774;2022-07-29T13:22:37;11.65;;;4.82;;
13611;SDS011;6877;51.436;6.774;2022-07-29T13:25:08;12.27;;;5.63;;
13611;SDS011;6877;51.436;6.774;2022-07-29T13:27:40;14.00;;;5.30;;
13611;SDS011;6877;51.436;6.774;2022-07-29T13:30:12;11.18;;;6.40;;
13611;SDS011;6877;51.436;6.774;2022-07-29T13:32:43;11.80;;;4.43;;
13611;SDS011;6877;51.436;6.774;2022-07-29T13:35:15;10.38;;;4.32;;
13611;SDS011;6877;51.436;6.774;2022-07-29T13:37:47;17.60;;;5.88;;
13611;SDS011;6877;51.436;6.774;2022-07-29T13:40:19;9.23;;;4.72;;
13611;SDS011;6877;51.436;6.774;2022-07-29T13:42:51;9.13;;;4.88;;
13611;SDS011;6877;51.436;6.774;2022-07-29T13:45:22;7.10;;;4.45;;
13611;SDS011;6877;51.436;6.774;2022-07-29T13:47:54;6.50;;;3.60;;
13611;SDS011;6877;51.436;6.774;2022-07-29T13:50:25;8.30;;;4.38;;
13611;SDS011;6877;51.436;6.774;2022-07-29T13:52:57;16.65;;;4.35;;
13611;SDS011;6877;51.436;6.774;2022-07-29T13:55:28;11.02;;;4.63;;
13611;SDS011;6877;51.436;6.774;2022-07-29T13:58:00;4.72;;;3.72;;
13611;SDS011;6877;51.436;6.774;2022-07-29T14:00:31;8.05;;;4.10;;
13611;SDS011;6877;51.436;6.774;2022-07-29T14:03:03;10.88;;;3.38;;
13611;SDS011;6877;51.436;6.774;2022-07-29T14:05:34;7.70;;;3.83;;
13611;SDS011;6877;51.436;6.774;2022-07-29T14:08:06;7.25;;;2.95;;
13611;SDS011;6877;51.436;6.774;2022-07-29T14:10:37;6.85;;;3.35;;
13611;SDS011;6877;51.436;6.774;2022-07-29T14:13:09;8.20;;;3.58;;
13611;SDS011;6877;51.436;6.774;2022-07-29T14:15:41;8.30;;;3.88;;
13611;SDS011;6877;51.436;6.774;2022-07-29T14:18:12;4.63;;;3.28;;
13611;SDS011;6877;51.436;6.774;2022-07-29T14:20:39;7.20;;;3.00;;
13611;SDS011;6877;51.436;6.774;2022-07-29T14:23:10;8.68;;;3.35;;
13611;SDS011;6877;51.436;6.774;2022-07-29T14:25:42;8.35;;;4.20;;
13611;SDS011;6877;51.436;6.774;2022-07-29T14:28:13;16.60;;;3.70;;
13611;SDS011;6877;51.436;6.774;2022-07-29T14:30:45;5.80;;;3.63;;
13611;SDS011;6877;51.436;6.774;2022-07-29T14:33:16;9.45;;;3.22;;
13611;SDS011;6877;51.436;6.774;2022-07-29T14:35:48;8.63;;;3.55;;
13611;SDS011;6877;51.436;6.774;2022-07-29T14:38:19;8.00;;;3.80;;
13611;SDS011;6877;51.436;6.774;2022-07-29T14:40:51;8.05;;;3.55;;
13611;SDS011;6877;51.436;6.774;2022-07-29T14:43:22;3.35;;;2.70;;
13611;SDS011;6877;51.436;6.774;2022-07-29T14:45:54;5.93;;;3.47;;
13611;SDS011;6877;51.436;6.774;2022-07-29T14:48:25;6.68;;;3.78;;
13611;SDS011;6877;51.436;6.774;2022-07-29T14:50:57;7.82;;;3.67;;
13611;SDS011;6877;51.436;6.774;2022-07-29T14:53:25;9.15;;;4.13;;
13611;SDS011;6877;51.436;6.774;2022-07-29T14:55:56;4.38;;;3.03;;
13611;SDS011;6877;51.436;6.774;2022-07-29T14:58:27;7.75;;;2.67;;
13611;SDS011;6877;51.436;6.774;2022-07-29T15:00:59;7.82;;;3.08;;
13611;SDS011;6877;51.436;6.774;2022-07-29T15:03:31;5.45;;;2.78;;
13611;SDS011;6877;51.436;6.774;2022-07-29T15:05:58;8.90;;;3.88;;
13611;SDS011;6877;51.436;6.774;2022-07-29T15:08:29;8.65;;;4.70;;
13611;SDS011;6877;51.436;6.774;2022-07-29T15:11:02;5.68;;;4.15;;
13611;SDS011;6877;51.436;6.774;2022-07-29T15:13:33;8.40;;;3.22;;
13611;SDS011;6877;51.436;6.774;2022-07-29T15:16:05;8.18;;;3.50;;
13611;SDS011;6877;51.436;6.774;2022-07-29T15:18:37;11.77;;;4.10;;
13611;SDS011;6877;51.436;6.774;2022-07-29T15:21:09;9.25;;;3.72;;
13611;SDS011;6877;51.436;6.774;2022-07-29T15:23:40;8.55;;;3.35;;
13611;SDS011;6877;51.436;6.774;2022-07-29T15:26:12;8.15;;;3.83;;
13611;SDS011;6877;51.436;6.774;2022-07-29T15:28:43;6.60;;;3.60;;
13611;SDS011;6877;51.436;6.774;2022-07-29T15:31:10;10.95;;;3.83;;
13611;SDS011;6877;51.436;6.774;2022-07-29T15:33:41;7.88;;;3.85;;
13611;SDS011;6877;51.436;6.774;2022-07-29T15:36:13;8.10;;;4.00;;
13611;SDS011;6877;51.436;6.774;2022-07-29T15:38:44;7.57;;;3.38;;
13611;SDS011;6877;51.436;6.774;2022-07-29T15:41:16;9.93;;;3.63;;
13611;SDS011;6877;51.436;6.774;2022-07-29T15:43:47;6.95;;;3.38;;
13611;SDS011;6877;51.436;6.774;2022-07-29T15:46:20;15.18;;;4.00;;
13611;SDS011;6877;51.436;6.774;2022-07-29T15:49:10;6.60;;;3.50;;
13611;SDS011;6877;51.436;6.774;2022-07-29T15:51:42;4.68;;;2.78;;
13611;SDS011;6877;51.436;6.774;2022-07-29T15:54:13;8.57;;;3.10;;
13611;SDS011;6877;51.436;6.774;2022-07-29T15:56:45;9.10;;;3.35;;
13611;SDS011;6877;51.436;6.774;2022-07-29T15:59:11;7.85;;;2.95;;
13611;SDS011;6877;51.436;6.774;2022-07-29T16:01:42;7.13;;;3.28;;
13611;SDS011;6877;51.436;6.774;2022-07-29T16:04:14;8.70;;;2.80;;
13611;SDS011;6877;51.436;6.774;2022-07-29T16:06:46;5.82;;;2.60;;
13611;SDS011;6877;51.436;6.774;2022-07-29T16:09:19;7.80;;;3.13;;
13611;SDS011;6877;51.436;6.774;2022-07-29T16:11:50;8.85;;;2.97;;
13611;SDS011;6877;51.436;6.774;2022-07-29T16:14:23;4.75;;;3.10;;
13611;SDS011;6877;51.436;6.774;2022-07-29T16:16:55;8.93;;;3.00;;
13611;SDS011;6877;51.436;6.774;2022-07-29T16:19:26;5.97;;;3.22;;
13611;SDS011;6877;51.436;6.774;2022-07-29T16:21:58;6.80;;;3.38;;
13611;SDS011;6877;51.436;6.774;2022-07-29T16:24:29;6.10;;;3.65;;
13611;SDS011;6877;51.436;6.774;2022-07-29T16:27:03;6.05;;;3.67;;
13611;SDS011;6877;51.436;6.774;2022-07-29T16:29:34;7.22;;;3.53;;
13611;SDS011;6877;51.436;6.774;2022-07-29T16:32:02;7.57;;;3.20;;
13611;SDS011;6877;51.436;6.774;2022-07-29T16:34:34;7.10;;;3.08;;
13611;SDS011;6877;51.436;6.774;2022-07-29T16:37:06;8.98;;;3.75;;
13611;SDS011;6877;51.436;6.774;2022-07-29T16:39:37;6.88;;;3.95;;
13611;SDS011;6877;51.436;6.774;2022-07-29T16:42:04;4.97;;;2.97;;
13611;SDS011;6877;51.436;6.774;2022-07-29T16:44:35;6.60;;;3.28;;
13611;SDS011;6877;51.436;6.774;2022-07-29T16:47:06;8.25;;;3.95;;
13611;SDS011;6877;51.436;6.774;2022-07-29T16:49:38;12.93;;;3.88;;
13611;SDS011;6877;51.436;6.774;2022-07-29T16:52:10;6.55;;;3.67;;